Carlisle, Minnesota
Current Conditions -  °F | °C
As of 4:14 AM on Tuesday 21 Oct 2014 (Local Time) from KFFM Reporting Station
Clear Clear  
Wind Chill: 37°   Ceiling: Unl
Heat Index: 43°   Visibility: 10mi
Dew Point: 36°   Wind: 10mph
Humidity: 76%   Direction: 120°ESE
Pressure: 30.1"   Gusts: NA
Location:  46.2829°N, 96.0991°W
Report Text: KFFM 210914Z AUTO 12009KT 10SM CLR 06/02 A3010 RMK AO2
Loading
Personal Weather Stations






























Interactive Weather Map
Tropical Storm Tracking
New forecast layout! Learn more

10-Day Weather Forecast

Advertisements
Track Severe Weather on mobile